Time;durP1;ratioP1;P1;durP2;ratioP2;P2;SDS_P1;SDS_P2;PMS_P1;PMS_P2;Temp;Humidity;BMP_temperature;BMP_pressure;BME280_temperature;BME280_humidity;BME280_pressure;Samples;Min_cycle;Max_cycle;Signal;HPM_P1;HPM_P2
2023/04/25 00:01:57;;;;;;;21.90;10.30;;;;;;;5.43;100.00;100554.95;105687;1253;66986;-51
2023/04/25 00:04:25;;;;;;;20.20;10.80;;;;;;;5.41;100.00;100557.33;105633;1254;73655;-51
2023/04/25 00:06:56;;;;;;;27.40;11.00;;;;;;;5.44;100.00;100551.71;105676;1259;63298;-51
2023/04/25 00:09:23;;;;;;;18.40;11.50;;;;;;;5.52;100.00;100547.47;105646;1253;61994;-51
2023/04/25 00:11:50;;;;;;;18.60;11.40;;;;;;;5.60;100.00;100542.18;105679;1257;74352;-51
2023/04/25 00:14:17;;;;;;;19.80;10.60;;;;;;;5.62;100.00;100538.92;105715;1253;66751;-50
2023/04/25 00:16:44;;;;;;;19.40;11.50;;;;;;;5.60;100.00;100536.88;105682;1257;74245;-51
2023/04/25 00:19:13;;;;;;;20.80;11.70;;;;;;;5.63;100.00;100535.52;105658;1254;64726;-51
2023/04/25 00:21:40;;;;;;;27.60;12.10;;;;;;;5.65;100.00;100533.29;105699;1257;62050;-51
2023/04/25 00:24:08;;;;;;;18.30;11.30;;;;;;;5.67;100.00;100528.84;105669;1254;74883;-51
2023/04/25 00:26:35;;;;;;;22.40;11.40;;;;;;;5.64;100.00;100523.37;105681;1257;66033;-51
2023/04/25 00:29:02;;;;;;;23.50;10.90;;;;;;;5.61;100.00;100524.38;105650;1254;74112;-51
2023/04/25 00:31:30;;;;;;;25.40;12.00;;;;;;;5.60;100.00;100519.75;105675;1253;64926;-50
2023/04/25 00:33:57;;;;;;;25.40;12.30;;;;;;;5.62;100.00;100512.55;105696;1257;61779;-50
2023/04/25 00:36:25;;;;;;;26.60;11.90;;;;;;;5.61;100.00;100504.34;105653;1258;75550;-51
2023/04/25 00:38:54;;;;;;;19.40;10.50;;;;;;;5.59;100.00;100498.86;105655;1259;66193;-51
2023/04/25 00:41:21;;;;;;;22.30;12.00;;;;;;;5.55;100.00;100496.45;105692;1253;73889;-51
2023/04/25 00:43:49;;;;;;;25.40;11.80;;;;;;;5.53;100.00;100491.48;105647;1255;64922;-52
2023/04/25 00:46:16;;;;;;;21.70;12.10;;;;;;;5.49;100.00;100485.99;105683;1259;61744;-51
2023/04/25 00:48:43;;;;;;;23.70;11.50;;;;;;;5.49;100.00;100485.66;105690;1254;76261;-51
2023/04/25 00:51:21;;;;;;;27.30;12.20;;;;;;;5.52;100.00;100478.98;105688;1253;65246;-51
2023/04/25 00:53:49;;;;;;;29.80;11.50;;;;;;;5.57;100.00;100478.14;105631;1254;74653;-50
2023/04/25 00:56:17;;;;;;;21.70;11.90;;;;;;;5.59;100.00;100477.64;105692;1258;64291;-50
2023/04/25 00:58:44;;;;;;;18.10;10.60;;;;;;;5.58;100.00;100474.89;105657;1254;60991;-51
2023/04/25 01:01:11;;;;;;;19.00;10.60;;;;;;;5.54;100.00;100468.38;105683;1258;76284;-51
2023/04/25 01:03:40;;;;;;;23.80;10.80;;;;;;;5.48;100.00;100462.71;105671;1254;67285;-50
2023/04/25 01:06:09;;;;;;;18.20;10.00;;;;;;;5.43;100.00;100459.09;105688;1257;74924;-50
2023/04/25 01:08:37;;;;;;;22.40;9.70;;;;;;;5.38;100.00;100456.16;105673;1253;62585;-50
2023/04/25 01:11:05;;;;;;;22.30;12.10;;;;;;;5.33;100.00;100453.42;105716;1253;61288;-51
2023/04/25 01:13:32;;;;;;;24.30;10.60;;;;;;;5.32;100.00;100453.77;105649;1258;76429;-50
2023/04/25 01:16:00;;;;;;;17.90;10.00;;;;;;;5.30;100.00;100451.19;105641;1253;67141;-52
2023/04/25 01:18:27;;;;;;;20.50;9.30;;;;;;;5.25;100.00;100452.02;105716;1253;75154;-51
2023/04/25 01:20:54;;;;;;;17.70;9.50;;;;;;;5.22;100.00;100447.23;105631;1260;63577;-51
2023/04/25 01:23:21;;;;;;;23.50;9.30;;;;;;;5.24;100.00;100444.84;105675;1257;63116;-52
2023/04/25 01:25:49;;;;;;;16.00;9.40;;;;;;;5.25;100.00;100441.76;105701;1253;75528;-51
2023/04/25 01:28:16;;;;;;;13.80;7.50;;;;;;;5.28;100.00;100441.77;105668;1253;66547;-51
2023/04/25 01:30:43;;;;;;;13.10;8.00;;;;;;;5.29;100.00;100438.52;105675;1257;74116;-51
2023/04/25 01:33:11;;;;;;;13.10;7.50;;;;;;;5.27;100.00;100439.20;105659;1253;64497;-51
2023/04/25 01:35:38;;;;;;;12.60;6.70;;;;;;;5.24;100.00;100434.91;105637;1260;61096;-51
2023/04/25 01:38:06;;;;;;;12.00;7.30;;;;;;;5.19;100.00;100434.39;105645;1258;76201;-51
2023/04/25 01:40:33;;;;;;;12.40;6.90;;;;;;;5.12;100.00;100433.67;105719;1254;66500;-51
2023/04/25 01:43:00;;;;;;;15.40;7.00;;;;;;;5.04;100.00;100435.01;105648;1254;74306;-52
2023/04/25 01:45:27;;;;;;;10.20;6.70;;;;;;;4.96;100.00;100437.72;105648;1253;63444;-52
2023/04/25 01:47:55;;;;;;;8.70;6.00;;;;;;;4.85;100.00;100433.56;105655;1254;62035;-51
2023/04/25 01:50:22;;;;;;;9.60;6.20;;;;;;;4.77;100.00;100431.80;105675;1253;75600;-52
2023/04/25 01:52:49;;;;;;;11.80;6.30;;;;;;;4.74;100.00;100428.55;105651;1260;67334;-52
2023/04/25 01:55:17;;;;;;;8.50;6.10;;;;;;;4.76;100.00;100424.45;105680;1256;74618;-52
2023/04/25 01:58:02;;;;;;;6.40;5.50;;;;;;;4.82;100.00;100420.55;105618;1253;62594;-51
2023/04/25 02:00:49;;;;;;;13.30;6.00;;;;;;;4.86;100.00;100417.66;105656;1257;63152;-53
2023/04/25 02:03:17;;;;;;;6.90;5.10;;;;;;;4.85;100.00;100420.73;105661;1258;75194;-51
2023/04/25 02:05:44;;;;;;;13.70;6.20;;;;;;;4.80;100.00;100423.11;105644;1255;65742;-50
2023/04/25 02:08:13;;;;;;;12.30;7.20;;;;;;;4.70;100.00;100424.60;105704;1254;75432;-52
2023/04/25 02:10:40;;;;;;;25.80;13.00;;;;;;;4.58;100.00;100425.55;105661;1254;64021;-51
2023/04/25 02:13:19;;;;;;;18.00;9.80;;;;;;;4.47;100.00;100423.96;105667;1253;62575;-51
2023/04/25 02:16:06;;;;;;;21.20;9.50;;;;;;;4.36;100.00;100423.38;105658;1258;76011;-51
2023/04/25 02:18:37;;;;;;;31.60;9.60;;;;;;;4.29;100.00;100421.79;105639;1253;67373;-51
2023/04/25 02:21:06;;;;;;;48.40;10.60;;;;;;;4.23;100.00;100424.30;105682;1254;73669;-55
2023/04/25 02:23:33;;;;;;;21.50;10.20;;;;;;;4.18;100.00;100421.36;105633;1253;64189;-53
2023/04/25 02:26:00;;;;;;;37.00;10.20;;;;;;;4.13;100.00;100417.06;105481;1255;61998;-53
2023/04/25 02:28:27;;;;;;;73.00;9.60;;;;;;;4.09;100.00;100412.42;105693;1253;75174;-53
2023/04/25 02:30:54;;;;;;;15.60;6.80;;;;;;;4.04;100.00;100414.94;105642;1259;66104;-55
2023/04/25 02:33:23;;;;;;;11.10;8.30;;;;;;;4.01;100.00;100413.21;105691;1255;75448;-54
2023/04/25 02:35:50;;;;;;;8.80;7.10;;;;;;;4.06;100.00;100411.02;105652;1254;64473;-55
2023/04/25 02:38:17;;;;;;;7.60;6.80;;;;;;;4.10;100.00;100410.21;105682;1254;62825;-52
2023/04/25 02:40:44;;;;;;;8.70;7.00;;;;;;;4.13;100.00;100409.70;105676;1254;76797;-53
2023/04/25 02:43:11;;;;;;;12.50;8.50;;;;;;;4.17;100.00;100407.36;105714;1253;68168;-54
2023/04/25 02:45:38;;;;;;;15.40;7.30;;;;;;;4.17;100.00;100407.52;105677;1257;74125;-53
2023/04/25 02:48:06;;;;;;;22.90;7.20;;;;;;;4.14;100.00;100409.02;105635;1253;63172;-52
2023/04/25 02:50:33;;;;;;;32.50;8.10;;;;;;;4.18;100.00;100410.27;105667;1257;62157;-52
2023/04/25 02:53:00;;;;;;;19.80;9.40;;;;;;;4.22;100.00;100410.28;105646;1260;76040;-52
2023/04/25 02:55:32;;;;;;;19.30;8.80;;;;;;;4.20;100.00;100414.90;105614;1253;65852;-53
2023/04/25 02:58:00;;;;;;;13.70;9.20;;;;;;;4.17;100.00;100411.29;105701;1253;75683;-52
2023/04/25 03:00:36;;;;;;;11.20;7.90;;;;;;;4.16;100.00;100406.30;105635;1254;63902;-52
2023/04/25 03:03:03;;;;;;;11.20;8.20;;;;;;;4.18;100.00;100398.83;105655;1254;62824;-52
2023/04/25 03:05:30;;;;;;;10.20;7.90;;;;;;;4.27;100.00;100399.03;105671;1254;75962;-52
2023/04/25 03:07:58;;;;;;;9.20;8.30;;;;;;;4.30;100.00;100397.89;105711;1253;65673;-52
2023/04/25 03:10:26;;;;;;;10.90;8.80;;;;;;;4.35;100.00;100397.90;105662;1254;73492;-52
2023/04/25 03:12:53;;;;;;;9.20;8.30;;;;;;;4.36;100.00;100393.30;105645;1254;63822;-52
2023/04/25 03:15:20;;;;;;;10.40;7.90;;;;;;;4.39;100.00;100396.05;105651;1258;61493;-52
2023/04/25 03:17:47;;;;;;;10.30;7.80;;;;;;;4.48;100.00;100397.65;105629;1260;74627;-52
2023/04/25 03:20:14;;;;;;;10.50;8.00;;;;;;;4.57;100.00;100396.50;105623;1261;64822;-52
2023/04/25 03:22:41;;;;;;;12.90;7.80;;;;;;;4.64;100.00;100397.89;105652;1256;73943;-52
2023/04/25 03:25:08;;;;;;;10.40;7.00;;;;;;;4.73;100.00;100394.69;105647;1253;64340;-52
2023/04/25 03:27:35;;;;;;;10.00;7.20;;;;;;;4.88;100.00;100394.08;105650;1254;61699;-52
2023/04/25 03:30:03;;;;;;;9.20;7.30;;;;;;;5.05;100.00;100392.76;105596;1258;76223;-52
2023/04/25 03:32:30;;;;;;;14.80;7.30;;;;;;;5.20;100.00;100392.80;105681;1253;65935;-52
2023/04/25 03:34:57;;;;;;;10.60;6.80;;;;;;;5.29;100.00;100390.60;105689;1254;73412;-52
2023/04/25 03:37:24;;;;;;;10.30;6.20;;;;;;;5.33;100.00;100392.17;105677;1254;64719;-52
2023/04/25 03:39:51;;;;;;;11.00;6.80;;;;;;;5.39;100.00;100390.63;105679;1258;61845;-53
2023/04/25 03:42:22;;;;;;;18.00;6.30;;;;;;;5.48;100.00;100387.90;105721;1257;76538;-53
2023/04/25 03:44:51;;;;;;;10.40;5.90;;;;;;;5.62;100.00;100380.23;105671;1253;67791;-52
2023/04/25 03:47:18;;;;;;;10.60;6.20;;;;;;;5.79;100.00;100376.11;105690;1253;73940;-52
2023/04/25 03:49:46;;;;;;;16.20;6.50;;;;;;;5.94;100.00;100373.36;105706;1253;64770;-52
2023/04/25 03:52:13;;;;;;;9.50;6.80;;;;;;;6.10;100.00;100371.33;105676;1258;61720;-52
2023/04/25 03:54:40;;;;;;;8.90;6.50;;;;;;;6.26;100.00;100372.17;105631;1253;74185;-52
2023/04/25 03:57:10;;;;;;;12.30;7.40;;;;;;;6.47;100.00;100372.45;105658;1255;67551;-52
2023/04/25 03:59:38;;;;;;;16.10;6.90;;;;;;;6.67;100.00;100370.67;105668;1254;75479;-54
2023/04/25 04:02:06;;;;;;;9.50;6.20;;;;;;;6.89;100.00;100370.08;105660;1254;63653;-52
2023/04/25 04:04:35;;;;;;;6.60;5.10;;;;;;;7.11;100.00;100370.31;105715;1258;61261;-52
2023/04/25 04:07:03;;;;;;;13.00;6.20;;;;;;;7.28;100.00;100367.14;105690;1253;75670;-53
2023/04/25 04:09:34;;;;;;;12.70;6.20;;;;;;;7.40;100.00;100364.99;105672;1253;67742;-53
2023/04/25 04:12:06;;;;;;;19.30;6.10;;;;;;;7.50;100.00;100362.34;105612;1256;75576;-53
2023/04/25 04:14:34;;;;;;;15.70;6.30;;;;;;;7.60;100.00;100358.66;105668;1253;64409;-54
2023/04/25 04:17:01;;;;;;;10.60;6.00;;;;;;;7.76;100.00;100355.11;105610;1258;62080;-52
2023/04/25 04:19:29;;;;;;;15.10;6.40;;;;;;;7.91;100.00;100348.62;105631;1258;75411;-52
2023/04/25 04:22:12;;;;;;;18.00;7.30;;;;;;;8.09;100.00;100348.79;105674;1253;67389;-52
2023/04/25 04:24:40;;;;;;;15.20;6.50;;;;;;;8.29;100.00;100350.14;105686;1254;74105;-53
2023/04/25 04:27:07;;;;;;;20.30;6.90;;;;;;;8.48;100.00;100347.70;105651;1253;64476;-53
2023/04/25 04:29:46;;;;;;;11.60;6.20;;;;;;;8.68;100.00;100347.84;105642;1253;63109;-53
2023/04/25 04:32:19;;;;;;;20.70;6.60;;;;;;;8.86;100.00;100344.17;105634;1258;74675;-52
2023/04/25 04:34:47;;;;;;;10.10;5.80;;;;;;;9.01;100.00;100342.25;105705;1258;67090;-52
2023/04/25 04:37:16;;;;;;;13.00;6.50;;;;;;;9.18;100.00;100349.94;105692;1258;75584;-53
2023/04/25 04:39:43;;;;;;;14.90;6.50;;;;;;;9.35;100.00;100340.56;105683;1258;64526;-53
2023/04/25 04:42:24;;;;;;;18.10;6.00;;;;;;;9.57;100.00;100344.72;105642;1258;63076;-50
2023/04/25 04:45:13;;;;;;;18.10;5.70;;;;;;;9.78;100.00;100344.89;105662;1253;75668;-52
2023/04/25 04:47:48;;;;;;;14.60;5.80;;;;;;;9.99;100.00;100346.06;105644;1253;67965;-53
2023/04/25 04:50:35;;;;;;;23.00;5.70;;;;;;;10.19;100.00;100346.40;105641;1254;73260;-52
2023/04/25 04:53:21;;;;;;;25.00;5.90;;;;;;;10.36;100.00;100348.86;105651;1253;61500;-54
2023/04/25 04:56:11;;;;;;;18.30;6.30;;;;;;;10.51;100.00;100354.98;105473;1259;62046;-54
2023/04/25 04:58:52;;;;;;;20.10;6.20;;;;;;;10.70;100.00;100361.66;105671;1253;76306;-53
2023/04/25 05:01:38;;;;;;;19.60;5.90;;;;;;;10.97;100.00;100371.31;105714;1257;66041;-53
2023/04/25 05:04:35;;;;;;;11.50;4.80;;;;;;;11.26;100.00;100377.94;105420;1253;75129;-53
2023/04/25 05:07:20;;;;;;;12.20;5.10;;;;;;;11.45;100.00;100386.31;105670;1253;63208;-51
2023/04/25 05:10:03;;;;;;;17.90;5.40;;;;;;;11.63;100.00;100398.67;105653;1257;61514;-53
2023/04/25 05:13:00;;;;;;;13.90;4.90;;;;;;;11.96;100.00;100416.58;105688;1258;76507;-52
2023/04/25 05:15:45;;;;;;;10.60;4.40;;;;;;;12.30;100.00;100438.58;105683;1253;67030;-53
2023/04/25 05:18:33;;;;;;;16.70;5.20;;;;;;;12.55;100.00;100472.90;105692;1253;75040;-53
2023/04/25 05:21:17;;;;;;;9.60;3.90;;;;;;;12.56;100.00;100518.22;105682;1257;61683;-54
2023/04/25 05:24:05;;;;;;;12.20;4.40;;;;;;;12.58;100.00;100581.00;105625;1253;62523;-54
2023/04/25 05:26:50;;;;;;;;;;;;;;;12.60;100.00;100643.11;105702;1257;76387;-53
2023/04/25 05:29:47;;;;;;;9.60;4.70;;;;;;;12.62;100.00;100710.75;105566;1258;67063;-55
2023/04/25 05:32:22;;;;;;;13.50;4.70;;;;;;;12.64;100.00;100759.69;105519;1256;73377;-53
2023/04/25 05:34:49;;;;;;;11.90;4.80;;;;;;;12.69;100.00;100802.36;105431;1256;60957;-54
2023/04/25 05:37:32;;;;;;;6.50;4.30;;;;;;;12.63;100.00;100840.40;105729;1257;60946;-58
2023/04/25 05:40:11;;;;;;;13.50;4.80;;;;;;;12.56;100.00;100825.84;105666;1258;75702;-53
2023/04/25 05:42:59;;;;;;;14.60;4.90;;;;;;;12.46;100.00;100655.55;105726;1258;66884;-53
2023/04/25 05:45:45;;;;;;;;;;;;;;;12.41;100.00;100363.04;105686;1253;75234;-52
2023/04/25 05:48:30;;;;;;;16.70;4.10;;;;;;;12.46;100.00;100070.91;105681;1253;63050;-52
2023/04/25 05:51:04;;;;;;;7.20;3.40;;;;;;;12.54;100.00;99828.73;105694;1257;61439;-54
2023/04/25 05:53:57;;;;;;;8.50;3.30;;;;;;;12.60;100.00;99717.55;105671;1253;75110;-53
2023/04/25 05:56:24;;;;;;;9.20;4.00;;;;;;;12.64;100.00;99744.73;105724;1253;67101;-53
2023/04/25 05:58:53;;;;;;;9.10;3.30;;;;;;;12.70;100.00;99793.17;105692;1257;73316;-54
2023/04/25 06:01:22;;;;;;;9.40;3.20;;;;;;;12.78;100.00;99824.05;105643;1253;62290;-53
2023/04/25 06:03:51;;;;;;;11.70;3.20;;;;;;;12.90;100.00;99854.59;105708;1254;63116;-52
2023/04/25 06:06:19;;;;;;;11.90;3.50;;;;;;;13.02;100.00;99884.80;105689;1258;76354;-52
2023/04/25 06:08:46;;;;;;;9.10;2.60;;;;;;;13.10;100.00;99918.77;105262;1260;583884;-52
2023/04/25 06:14:08;;;;;;;4.20;2.90;;;;;;;13.42;100.00;99933.19;102629;1293;600589;-52
2023/04/25 06:16:37;;;;;;;5.00;2.40;;;;;;;13.59;100.00;99941.23;104643;1269;63127;-53
2023/04/25 06:19:05;;;;;;;10.10;2.80;;;;;;;13.76;100.00;99967.11;104574;1277;61802;-53
2023/04/25 06:21:32;;;;;;;7.50;2.40;;;;;;;13.89;100.00;99989.83;104758;1273;74161;-55
2023/04/25 06:23:59;;;;;;;10.10;3.10;;;;;;;14.05;100.00;100005.84;104561;1268;67505;-56
2023/04/25 06:26:27;;;;;;;7.90;3.10;;;;;;;14.22;100.00;100029.27;104628;1270;75406;-54
2023/04/25 06:28:54;;;;;;;6.30;2.80;;;;;;;14.32;100.00;100061.50;104644;1271;241052;-56
2023/04/25 06:31:21;;;;;;;4.20;2.20;;;;;;;14.44;100.00;100069.73;104794;1271;61637;-54
2023/04/25 06:33:49;;;;;;;9.10;2.50;;;;;;;14.57;100.00;100085.67;104761;1271;73988;-55
2023/04/25 06:36:17;;;;;;;10.30;2.60;;;;;;;14.72;100.00;100100.02;104765;1271;66115;-52
2023/04/25 06:38:45;;;;;;;10.40;3.00;;;;;;;14.73;100.00;100132.80;104755;1268;75090;-53
2023/04/25 06:41:12;;;;;;;10.40;2.50;;;;;;;14.75;100.00;100141.95;104772;1271;61911;-53
2023/04/25 06:43:40;;;;;;;8.00;2.40;;;;;;;14.74;100.00;100155.55;104787;1271;63316;-53
2023/04/25 06:46:13;;;;;;;7.00;2.10;;;;;;;14.76;100.00;100166.73;104739;1271;75222;-54
2023/04/25 06:48:43;;;;;;;7.00;2.80;;;;;;;14.89;100.00;100165.52;104741;1271;68315;-54
2023/04/25 06:51:10;;;;;;;7.20;3.00;;;;;;;15.03;100.00;100171.39;104733;1274;74026;-54
2023/04/25 06:53:38;;;;;;;7.30;2.70;;;;;;;15.20;100.00;100172.40;104754;1267;63147;-52
2023/04/25 06:56:06;;;;;;;5.30;2.40;;;;;;;15.28;98.98;100179.58;104769;1269;61256;-53
2023/04/25 06:58:51;;;;;;;5.90;2.10;;;;;;;15.40;96.45;100186.37;104742;1271;73611;-52
2023/04/25 07:01:40;;;;;;;6.70;3.10;;;;;;;15.46;98.80;100198.78;104758;1271;67050;-53
2023/04/25 07:04:15;;;;;;;10.20;3.40;;;;;;;15.63;94.43;100184.31;105594;1260;75467;-53
2023/04/25 07:06:55;;;;;;;5.70;3.00;;;;;;;15.69;83.97;100186.70;105567;1261;62757;-53
2023/04/25 07:09:29;;;;;;;9.70;2.80;;;;;;;15.83;89.30;100199.98;105620;1261;61678;-52
2023/04/25 07:11:57;;;;;;;7.10;3.00;;;;;;;16.10;82.51;100181.92;105616;1262;75112;-53
2023/04/25 07:14:26;;;;;;;7.10;2.50;;;;;;;16.32;79.13;100184.76;105641;1261;66688;-53
2023/04/25 07:16:55;;;;;;;9.00;3.00;;;;;;;16.61;81.82;100190.56;105609;1260;75630;-54
2023/04/25 07:19:26;;;;;;;5.40;2.70;;;;;;;16.96;77.19;100177.04;105623;1254;61416;-53
2023/04/25 07:21:55;;;;;;;9.80;3.00;;;;;;;17.20;68.27;100127.58;105683;1261;62446;-53
2023/04/25 07:24:22;;;;;;;11.60;2.80;;;;;;;17.27;65.54;100158.40;105487;1255;74505;-53
2023/04/25 07:26:49;;;;;;;11.50;4.10;;;;;;;17.48;63.20;100138.71;105635;1260;65396;-53
2023/04/25 07:29:36;;;;;;;10.30;2.70;;;;;;;17.70;62.51;100150.77;105604;1262;74536;-52
2023/04/25 07:32:04;;;;;;;12.10;3.00;;;;;;;17.94;61.88;100154.25;105502;1262;62938;-53
2023/04/25 07:34:31;;;;;;;7.30;2.70;;;;;;;18.13;60.86;100144.33;105561;1264;60705;-54
2023/04/25 07:36:59;;;;;;;12.50;3.00;;;;;;;18.27;59.32;100127.66;105579;1260;75120;-54
2023/04/25 07:39:31;;;;;;;11.40;3.30;;;;;;;18.27;58.51;100131.51;105430;1262;67164;-53
2023/04/25 07:42:00;;;;;;;12.80;2.70;;;;;;;18.27;58.81;100157.75;105602;1259;75406;-52
2023/04/25 07:44:27;;;;;;;7.30;2.80;;;;;;;18.48;58.55;100149.02;105595;1260;62165;-53
2023/04/25 07:46:55;;;;;;;7.80;2.60;;;;;;;18.80;58.93;100164.37;105582;1261;62911;-54
2023/04/25 07:49:22;;;;;;;14.90;3.10;;;;;;;19.16;56.93;100101.63;105562;1269;74643;-53
2023/04/25 07:51:50;;;;;;;5.00;2.50;;;;;;;19.39;55.34;100074.92;105582;1258;65842;-54
2023/04/25 07:54:18;;;;;;;5.80;2.60;;;;;;;19.51;54.55;100068.93;105590;1257;75441;-54
2023/04/25 07:56:49;;;;;;;9.00;2.70;;;;;;;19.49;52.87;100025.64;105593;1257;63107;-53
2023/04/25 07:59:20;;;;;;;3.80;2.50;;;;;;;19.43;51.78;99995.77;105619;1267;63197;-53
2023/04/25 08:01:48;;;;;;;4.50;2.30;;;;;;;19.58;51.07;99974.35;105574;1262;75195;-53
2023/04/25 08:04:15;;;;;;;5.10;2.70;;;;;;;19.60;50.43;99975.13;105589;1260;65568;-52
2023/04/25 08:06:54;;;;;;;6.40;2.40;;;;;;;19.54;51.31;100035.99;105579;1260;74088;-54
2023/04/25 08:09:24;;;;;;;6.70;2.80;;;;;;;19.55;51.38;100055.72;105554;1258;62206;-54
2023/04/25 08:11:52;;;;;;;5.40;2.40;;;;;;;19.75;50.47;100003.21;105635;1260;61857;-53
2023/04/25 08:14:23;;;;;;;3.60;2.50;;;;;;;19.95;49.19;99944.91;105555;1260;75724;-54
2023/04/25 08:16:50;;;;;;;5.30;2.70;;;;;;;20.05;49.27;99970.67;105629;1260;67522;-52
2023/04/25 08:19:18;;;;;;;7.30;2.60;;;;;;;20.23;47.98;99898.04;105587;1260;75450;-52
2023/04/25 08:21:45;;;;;;;4.10;2.50;;;;;;;20.32;46.42;99829.45;105645;1256;60723;-54
2023/04/25 08:24:15;;;;;;;7.00;3.00;;;;;;;20.48;46.08;99821.15;105582;1260;62935;-54
2023/04/25 08:26:42;;;;;;;8.20;3.00;;;;;;;20.70;45.92;99819.65;105607;1262;74797;-54
2023/04/25 08:29:13;;;;;;;5.10;2.60;;;;;;;21.04;45.97;99835.14;105590;1257;65494;-54
2023/04/25 08:31:40;;;;;;;8.60;2.80;;;;;;;21.32;44.36;99726.98;105572;1260;75361;-52
2023/04/25 08:34:07;;;;;;;6.60;3.10;;;;;;;21.35;43.53;99682.21;105539;1257;62050;-55
2023/04/25 08:36:43;;;;;;;;;;;;;;;21.23;43.62;99719.94;105346;1261;62123;-55
2023/04/25 08:39:33;;;;;;;9.70;2.60;;;;;;;21.27;42.97;99676.14;105293;1256;75430;-57
2023/04/25 08:42:29;;;;;;;4.00;2.20;;;;;;;21.12;43.06;99702.34;105489;1257;66088;-54
2023/04/25 08:44:57;;;;;;;9.30;2.50;;;;;;;20.92;42.45;99671.69;105561;1267;74503;-52
2023/04/25 08:47:27;;;;;;;9.70;3.00;;;;;;;20.69;43.20;99747.66;105567;1255;63116;-53
2023/04/25 08:49:56;;;;;;;5.70;2.40;;;;;;;20.51;43.08;99744.55;105295;1257;63217;-52
2023/04/25 08:52:24;;;;;;;8.40;3.50;;;;;;;20.44;42.82;99730.02;105546;1260;75753;-52
2023/04/25 08:54:52;;;;;;;6.70;3.00;;;;;;;20.33;42.97;99747.91;105628;1261;67624;-53
2023/04/25 08:57:19;;;;;;;5.70;3.10;;;;;;;20.29;43.65;99797.10;105538;1260;75289;-53
2023/04/25 08:59:47;;;;;;;7.70;3.30;;;;;;;20.37;43.61;99806.32;105580;1257;61693;-53
2023/04/25 09:02:16;;;;;;;11.50;3.20;;;;;;;20.32;45.20;99912.48;105582;1256;62154;-54
2023/04/25 09:04:46;;;;;;;8.60;2.80;;;;;;;20.14;44.67;99889.68;105556;1260;73562;-53
2023/04/25 09:07:18;;;;;;;14.50;3.00;;;;;;;20.12;44.86;99902.78;105546;1261;65952;-52
2023/04/25 09:09:46;;;;;;;5.40;3.10;;;;;;;20.38;44.35;99854.79;105591;1262;73389;-52
2023/04/25 09:12:19;;;;;;;5.70;3.10;;;;;;;20.52;43.82;99811.39;105565;1257;63153;-54
2023/04/25 09:15:12;;;;;;;11.60;3.10;;;;;;;20.67;43.80;99809.17;105504;1261;62815;-53
2023/04/25 09:17:55;;;;;;;5.10;3.00;;;;;;;21.09;44.17;99831.44;105585;1261;74338;-53
2023/04/25 09:20:22;;;;;;;9.60;3.50;;;;;;;21.63;43.31;99764.35;105648;1260;66046;-53
2023/04/25 09:22:50;;;;;;;5.20;3.30;;;;;;;21.97;42.28;99681.86;105569;1261;73454;-53
2023/04/25 09:25:17;;;;;;;16.00;3.70;;;;;;;22.01;41.99;99659.82;105361;1257;61652;-53
2023/04/25 09:27:52;;;;;;;10.80;2.80;;;;;;;21.88;42.20;99686.81;105616;1258;62979;-54
2023/04/25 09:30:30;;;;;;;6.80;3.00;;;;;;;21.82;41.44;99648.45;105576;1261;75964;-53
2023/04/25 09:33:10;;;;;;;5.50;2.60;;;;;;;21.95;40.55;99576.98;105604;1257;67634;-53
2023/04/25 09:35:42;;;;;;;8.10;2.80;;;;;;;22.15;40.31;99556.30;105577;1261;73987;-53
2023/04/25 09:38:18;;;;;;;10.10;3.40;;;;;;;22.13;40.30;99562.43;105580;1258;62800;-51
2023/04/25 09:41:01;;;;;;;2.30;2.20;;;;;;;21.94;39.66;99528.26;105563;1261;62414;-54
2023/04/25 09:43:38;;;;;;;7.40;2.50;;;;;;;21.55;40.07;99567.30;105561;1260;75786;-53
2023/04/25 09:46:10;;;;;;;6.40;2.50;;;;;;;21.27;41.14;99661.92;105584;1257;67558;-53
2023/04/25 09:48:42;;;;;;;;;;;;;;;21.00;41.86;99725.60;105577;1261;75406;-53
2023/04/25 09:51:11;;;;;;;7.10;2.90;;;;;;;20.83;43.44;99839.23;105527;1257;63131;-52
2023/04/25 09:53:49;;;;;;;7.80;3.00;;;;;;;20.85;43.10;99823.84;105642;1260;61082;-56
2023/04/25 09:56:32;;;;;;;7.30;3.40;;;;;;;21.22;42.50;99773.30;105591;1257;75238;-53
2023/04/25 09:59:00;;;;;;;8.50;2.90;;;;;;;21.56;41.39;99689.06;105461;1260;67524;-53
2023/04/25 10:01:27;;;;;;;5.70;2.40;;;;;;;21.59;41.87;99710.39;105541;1260;74503;-61
2023/04/25 10:04:24;;;;;;;10.30;3.30;;;;;;;21.49;41.36;99688.48;105549;1261;62547;-54
2023/04/25 10:06:57;;;;;;;12.70;3.50;;;;;;;21.31;41.69;99716.01;105595;1261;61780;-51
2023/04/25 10:09:25;;;;;;;4.20;3.20;;;;;;;21.22;43.51;99842.13;105625;1261;75268;-52
2023/04/25 10:11:52;;;;;;;9.60;3.00;;;;;;;21.54;43.12;99830.78;105600;1257;66280;-52
2023/04/25 10:14:20;;;;;;;13.50;2.90;;;;;;;21.92;41.70;99703.39;105561;1257;74668;-51
2023/04/25 10:16:47;;;;;;;6.40;2.40;;;;;;;22.15;40.78;99632.87;105581;1256;62066;-54
2023/04/25 10:19:15;;;;;;;9.50;4.50;;;;;;;22.00;40.68;99626.70;105567;1262;62964;-53
2023/04/25 10:22:08;;;;;;;11.90;4.10;;;;;;;22.22;40.19;99602.45;105564;1260;75287;-53
2023/04/25 10:24:36;;;;;;;7.60;4.10;;;;;;;22.44;39.39;99531.95;105606;1257;67041;-54
2023/04/25 10:27:03;;;;;;;10.00;4.90;;;;;;;22.59;40.33;99600.73;105582;1263;74502;-51
2023/04/25 10:29:30;;;;;;;9.00;4.60;;;;;;;22.56;39.78;99571.25;105506;1261;62736;-52
2023/04/25 10:31:57;;;;;;;8.60;4.80;;;;;;;22.25;40.01;99586.38;105607;1260;61492;-54
2023/04/25 10:34:39;;;;;;;8.20;4.40;;;;;;;22.07;39.94;99584.45;105566;1260;76345;-52
2023/04/25 10:37:09;;;;;;;11.10;5.00;;;;;;;22.00;40.19;99608.94;105576;1260;67052;-53
2023/04/25 10:39:41;;;;;;;8.60;4.50;;;;;;;22.10;40.29;99630.43;105579;1261;75290;-52
2023/04/25 10:42:08;;;;;;;8.00;3.70;;;;;;;22.33;39.45;99565.88;109173;1256;61878;-53
2023/04/25 10:44:37;;;;;;;12.60;4.40;;;;;;;22.70;39.70;99561.98;109207;1257;61738;-52
2023/04/25 10:47:06;;;;;;;10.00;4.30;;;;;;;23.11;39.08;99515.85;109210;1255;74409;-54
2023/04/25 10:49:37;;;;;;;6.90;5.70;;;;;;;23.06;37.66;99419.70;109102;1257;66451;-54
2023/04/25 10:52:23;;;;;;;6.90;5.60;;;;;;;22.63;38.15;99458.35;109144;1256;73692;-54
2023/04/25 10:54:55;;;;;;;9.90;5.10;;;;;;;22.24;38.98;99538.47;109154;1257;60985;-53
2023/04/25 10:57:33;;;;;;;9.40;6.60;;;;;;;22.03;38.97;99541.27;109175;1257;61294;-53
2023/04/25 11:00:11;;;;;;;12.40;5.70;;;;;;;22.01;38.70;99527.88;109293;1256;76528;-54
2023/04/25 11:02:46;;;;;;;15.00;7.10;;;;;;;22.23;38.64;99524.83;109179;1256;65224;-54
2023/04/25 11:05:23;;;;;;;11.20;5.80;;;;;;;22.46;37.32;99429.18;109156;1256;73479;-52
2023/04/25 11:07:51;;;;;;;8.90;4.80;;;;;;;22.71;37.65;99435.65;109087;1256;62427;-54
2023/04/25 11:10:31;;;;;;;8.60;4.90;;;;;;;23.26;36.94;99381.58;109179;1256;61491;-55
2023/04/25 11:12:58;;;;;;;11.20;5.50;;;;;;;23.55;36.52;99328.66;109160;1257;74890;-54
2023/04/25 11:15:25;;;;;;;11.60;4.70;;;;;;;23.54;37.59;99408.63;109174;1256;65703;-54
2023/04/25 11:20:43;;;;;;;9.90;5.50;;;;;;;22.90;37.37;99415.59;102692;1294;601147;-53
2023/04/25 11:23:10;;;;;;;11.00;5.20;;;;;;;22.54;37.83;99461.02;104950;1269;62573;-51
2023/04/25 11:25:37;;;;;;;8.10;5.70;;;;;;;22.52;37.78;99454.20;104829;1266;61264;-58
2023/04/25 11:28:05;;;;;;;9.70;4.40;;;;;;;22.51;37.55;99446.86;104794;1266;73668;-54
2023/04/25 11:30:32;;;;;;;7.00;4.20;;;;;;;22.25;37.54;99451.27;104737;1270;66861;-54
2023/04/25 11:32:59;;;;;;;7.40;3.40;;;;;;;22.17;36.57;99377.64;104828;1266;74935;-55
2023/04/25 11:35:26;;;;;;;4.30;3.10;;;;;;;22.16;35.85;99335.59;104903;1268;242818;-54
2023/04/25 11:37:53;;;;;;;7.00;3.60;;;;;;;22.07;35.46;99293.95;105109;1268;61082;-53
2023/04/25 11:40:20;;;;;;;5.70;3.00;;;;;;;21.83;36.20;99343.04;105548;1261;74664;-54